Time;durP1;ratioP1;P1;durP2;ratioP2;P2;SDS_P1;SDS_P2;PMS_P1;PMS_P2;Temp;Humidity;BMP_temperature;BMP_pressure;BME280_temperature;BME280_humidity;BME280_pressure;Samples;Min_cycle;Max_cycle;Signal;HPM_P1;HPM_P2
2022/06/08 00:02:17;;;;;;;34.38;30.77;;;;;;;15.99;86.80;100948.28;5071993;28;20028;-71
2022/06/08 00:04:43;;;;;;;36.75;32.85;;;;;;;16.08;87.81;100952.84;5085991;28;20062;-71
2022/06/08 00:07:08;;;;;;;35.42;30.70;;;;;;;16.03;87.02;100957.75;5091257;28;20031;-71
2022/06/08 00:09:34;;;;;;;35.85;32.00;;;;;;;16.01;87.66;100949.84;5055943;28;20036;-71
2022/06/08 00:12:02;;;;;;;35.30;31.63;;;;;;;15.97;87.20;100948.41;5088949;28;20063;-71
2022/06/08 00:14:30;;;;;;;34.95;31.23;;;;;;;15.83;87.47;100938.84;5091947;28;20020;-71
2022/06/08 00:16:55;;;;;;;37.03;33.03;;;;;;;15.97;87.59;100947.53;5091654;28;20024;-70
2022/06/08 00:19:21;;;;;;;37.38;33.50;;;;;;;15.89;88.05;100945.53;5073193;28;20028;-70
2022/06/08 00:21:47;;;;;;;36.25;32.42;;;;;;;15.86;88.08;100941.25;5073255;28;20090;-71
2022/06/08 00:24:12;;;;;;;37.85;33.83;;;;;;;15.84;89.10;100937.84;5090550;28;20047;-70
2022/06/08 00:26:40;;;;;;;40.75;36.15;;;;;;;15.93;88.96;100932.69;5089281;28;20114;-70
2022/06/08 00:29:06;;;;;;;38.03;33.95;;;;;;;15.98;88.10;100934.00;5091332;28;20073;-70
2022/06/08 00:31:31;;;;;;;37.50;33.47;;;;;;;15.82;88.65;100931.75;5071861;28;20036;-70
2022/06/08 00:33:57;;;;;;;37.90;33.97;;;;;;;15.78;87.97;100930.31;5038699;28;20020;-70
2022/06/08 00:36:26;;;;;;;37.80;33.72;;;;;;;15.76;87.99;100926.91;5073243;28;20024;-70
2022/06/08 00:38:51;;;;;;;36.28;32.55;;;;;;;15.74;88.34;100923.53;5058513;28;20040;-70
2022/06/08 00:41:19;;;;;;;36.80;32.80;;;;;;;15.78;88.42;100919.59;5091171;28;20035;-70
2022/06/08 00:43:45;;;;;;;39.33;35.30;;;;;;;15.65;87.90;100917.06;5090652;28;20080;-70
2022/06/08 00:46:11;;;;;;;38.38;34.30;;;;;;;15.60;88.08;100918.41;5091212;28;20032;-70
2022/06/08 00:48:50;;;;;;;38.67;34.58;;;;;;;15.53;88.78;100910.03;5091156;28;20056;-70
2022/06/08 00:51:16;;;;;;;;;;;;;;;15.71;86.78;100912.19;5092165;28;20383;-70
2022/06/08 00:53:47;;;;;;;38.42;33.75;;;;;;;15.48;87.90;100914.06;5090023;28;19911;-70
2022/06/08 00:56:21;;;;;;;39.22;34.55;;;;;;;15.45;88.26;100907.13;5072394;28;20028;-70
2022/06/08 00:58:49;;;;;;;37.67;33.60;;;;;;;15.31;88.44;100907.41;5090602;28;20035;-70
2022/06/08 01:01:15;;;;;;;37.95;33.95;;;;;;;15.39;88.48;100902.28;5086152;28;20024;-70
2022/06/08 01:03:41;;;;;;;38.40;34.20;;;;;;;15.33;88.55;100887.56;5090490;28;20066;-70
2022/06/08 01:06:19;;;;;;;38.67;34.15;;;;;;;15.37;88.04;100897.03;5091997;28;20124;-70
2022/06/08 01:08:48;;;;;;;39.40;33.37;;;;;;;15.29;88.05;100895.97;5091206;28;20482;-70
2022/06/08 01:11:26;;;;;;;38.88;32.83;;;;;;;15.29;88.10;100893.28;5090872;28;20269;-71
2022/06/08 01:13:57;;;;;;;36.60;32.25;;;;;;;15.15;88.15;100886.41;5072038;28;20092;-71
2022/06/08 01:16:22;;;;;;;37.08;32.45;;;;;;;15.16;88.38;100886.25;5091735;28;20020;-70
2022/06/08 01:18:48;;;;;;;37.92;32.08;;;;;;;15.20;87.92;100881.50;5091040;28;20038;-71
2022/06/08 01:21:22;;;;;;;34.83;31.05;;;;;;;15.19;88.10;100872.59;5055535;28;20020;-71
2022/06/08 01:23:51;;;;;;;34.90;30.90;;;;;;;15.15;87.70;100871.16;5090722;28;20387;-71
2022/06/08 01:26:43;;;;;;;38.78;33.28;;;;;;;15.05;88.40;100859.50;5089462;28;20024;-71
2022/06/08 01:29:32;;;;;;;38.03;33.83;;;;;;;15.04;87.87;100865.00;5091422;28;20024;-70
2022/06/08 01:32:06;;;;;;;38.55;33.20;;;;;;;14.95;88.29;100867.44;5090794;28;20024;-71
2022/06/08 01:35:17;;;;;;;38.60;33.17;;;;;;;15.02;88.36;100862.41;5090042;28;20081;-71
2022/06/08 01:38:24;;;;;;;39.42;32.40;;;;;;;15.02;88.17;100850.84;5090404;28;20536;-70
2022/06/08 01:41:10;;;;;;;36.10;31.73;;;;;;;14.98;88.16;100847.59;5078556;28;20047;-70
2022/06/08 01:43:44;;;;;;;35.53;30.40;;;;;;;14.91;88.63;100846.38;5093476;28;20416;-71
2022/06/08 01:46:28;;;;;;;35.10;29.33;;;;;;;14.93;88.62;100847.94;5093676;28;20028;-71
2022/06/08 01:49:07;;;;;;;33.72;29.73;;;;;;;14.89;88.99;100845.66;5093974;28;20024;-71
2022/06/08 01:51:35;;;;;;;34.67;27.80;;;;;;;14.87;89.10;100837.75;5094611;28;20028;-71
2022/06/08 01:54:22;;;;;;;33.25;27.73;;;;;;;14.87;89.19;100836.91;5076206;28;20476;-71
2022/06/08 01:57:14;;;;;;;30.63;26.75;;;;;;;14.93;88.60;100823.84;5093499;28;20020;-70
2022/06/08 02:00:01;;;;;;;28.23;25.15;;;;;;;14.85;88.93;100823.63;5058811;28;20134;-71
2022/06/08 02:02:47;;;;;;;29.70;24.65;;;;;;;14.86;89.23;100819.13;5094040;28;20024;-70
2022/06/08 02:05:28;;;;;;;28.52;23.92;;;;;;;14.86;89.35;100821.81;5092729;28;20051;-71
2022/06/08 02:08:00;;;;;;;29.65;25.13;;;;;;;14.90;89.47;100816.06;5092876;28;20027;-71
2022/06/08 02:10:45;;;;;;;25.75;23.00;;;;;;;14.96;88.81;100804.84;5073792;28;20028;-70
2022/06/08 02:13:28;;;;;;;28.45;23.58;;;;;;;14.95;88.89;100805.84;5093519;28;20078;-71
2022/06/08 02:16:02;;;;;;;26.45;23.63;;;;;;;14.82;88.79;100807.81;5094089;28;20060;-71
2022/06/08 02:18:37;;;;;;;25.42;22.80;;;;;;;14.79;89.21;100794.66;5096079;28;20023;-70
2022/06/08 02:21:11;;;;;;;29.75;23.00;;;;;;;14.74;88.97;100787.03;5099863;28;20024;-70
2022/06/08 02:24:05;;;;;;;24.73;22.05;;;;;;;14.74;89.05;100781.66;5092047;28;20020;-70
2022/06/08 02:26:36;;;;;;;27.27;21.52;;;;;;;14.61;89.74;100782.78;5075092;28;20123;-71
2022/06/08 02:29:23;;;;;;;25.20;22.35;;;;;;;14.66;89.57;100777.91;5058902;28;20045;-71
2022/06/08 02:34:27;;;;;;;26.10;22.10;;;;;;;14.63;89.41;100779.00;5093167;28;20399;-71
2022/06/08 02:34:51;;;;;;;25.45;21.80;;;;;;;14.54;89.58;100769.91;5092305;28;20044;-70
2022/06/08 02:37:21;;;;;;;23.73;20.95;;;;;;;14.56;89.97;100771.59;5093811;28;20094;-70
2022/06/08 02:39:52;;;;;;;;;;;;;;;14.71;88.33;100762.34;5093285;28;20032;-70
2022/06/08 02:42:17;;;;;;;23.60;21.17;;;;;;;14.54;89.31;100761.88;5093889;28;20294;-69
2022/06/08 02:44:47;;;;;;;20.55;18.23;;;;;;;14.51;89.94;100766.59;5093716;28;20077;-70
2022/06/08 02:47:18;;;;;;;21.80;19.42;;;;;;;14.45;89.26;100767.94;5093269;28;20020;-71
2022/06/08 02:49:43;;;;;;;20.13;18.02;;;;;;;14.45;89.46;100767.09;5093508;28;20074;-71
2022/06/08 02:52:21;;;;;;;21.33;18.30;;;;;;;14.47;89.85;100757.97;5073565;28;20062;-71
2022/06/08 02:54:49;;;;;;;20.27;17.58;;;;;;;14.43;89.86;100758.31;5092251;28;20072;-70
2022/06/08 02:57:30;;;;;;;20.47;17.73;;;;;;;14.47;90.12;100752.63;5092397;28;20069;-71
2022/06/08 03:00:11;;;;;;;21.27;17.52;;;;;;;14.43;90.34;100752.97;5093399;28;20032;-70
2022/06/08 03:02:45;;;;;;;20.33;17.25;;;;;;;14.44;90.45;100742.16;5091058;28;20024;-69
2022/06/08 03:05:21;;;;;;;19.35;17.00;;;;;;;14.43;90.16;100743.13;5074139;28;20072;-70
2022/06/08 03:07:59;;;;;;;18.85;16.17;;;;;;;14.44;90.13;100735.94;5074098;28;20036;-70
2022/06/08 03:10:29;;;;;;;18.38;15.27;;;;;;;14.43;90.04;100737.75;5101068;28;20578;-70
2022/06/08 03:13:05;;;;;;;17.15;15.32;;;;;;;14.34;89.95;100751.03;5092286;28;20020;-71
2022/06/08 03:15:32;;;;;;;20.38;14.38;;;;;;;14.43;89.98;100739.59;5092954;28;20028;-70
2022/06/08 03:17:57;;;;;;;15.98;14.40;;;;;;;14.42;90.02;100744.09;5093749;28;20023;-70
2022/06/08 03:20:24;;;;;;;17.00;14.30;;;;;;;14.38;90.57;100739.09;5056862;28;20104;-70
2022/06/08 03:22:50;;;;;;;16.83;13.52;;;;;;;14.38;90.74;100739.09;5098030;28;20478;-70
2022/06/08 03:25:16;;;;;;;15.55;13.68;;;;;;;14.37;90.90;100742.78;5094689;28;20070;-70
2022/06/08 03:27:44;;;;;;;15.27;13.57;;;;;;;14.34;91.38;100737.66;5090921;28;20066;-70
2022/06/08 03:30:11;;;;;;;14.85;12.60;;;;;;;14.36;91.26;100733.06;5092422;28;20080;-70
2022/06/08 03:32:37;;;;;;;14.77;12.20;;;;;;;14.27;91.90;100740.00;5073866;28;20034;-71
2022/06/08 03:35:03;;;;;;;13.18;11.80;;;;;;;14.24;91.84;100725.03;5057461;28;20032;-71
2022/06/08 03:37:28;;;;;;;15.20;12.55;;;;;;;14.36;92.01;100730.38;5073648;28;20036;-70
2022/06/08 03:39:53;;;;;;;14.38;11.43;;;;;;;14.36;91.90;100727.69;5074032;28;20584;-70
2022/06/08 03:42:21;;;;;;;13.27;11.95;;;;;;;14.41;91.36;100739.75;5091710;28;20039;-70
2022/06/08 03:44:46;;;;;;;14.18;11.50;;;;;;;14.45;91.97;100745.69;5093031;28;20489;-71
2022/06/08 03:47:18;;;;;;;17.15;11.50;;;;;;;14.48;91.92;100737.41;5073585;28;20097;-71
2022/06/08 03:49:44;;;;;;;11.80;10.50;;;;;;;14.43;91.76;100744.94;5075630;28;20028;-70
2022/06/08 03:52:17;;;;;;;12.52;10.63;;;;;;;14.43;92.37;100747.63;5073694;28;20032;-70
2022/06/08 03:54:48;;;;;;;12.93;11.52;;;;;;;14.43;92.51;100748.47;5091620;28;20450;-70
2022/06/08 03:57:14;;;;;;;12.43;10.98;;;;;;;14.46;92.31;100744.69;5084686;28;20123;-71
2022/06/08 03:59:41;;;;;;;12.32;11.10;;;;;;;14.42;92.64;100743.25;5091791;28;20039;-70
2022/06/08 04:02:09;;;;;;;12.48;11.10;;;;;;;14.45;92.31;100734.97;5090711;28;20023;-71
2022/06/08 04:04:36;;;;;;;11.85;10.43;;;;;;;14.54;92.32;100735.09;5072337;28;20414;-71
2022/06/08 04:07:02;;;;;;;13.40;10.70;;;;;;;14.61;92.36;100738.13;5092057;28;20024;-71
2022/06/08 04:09:28;;;;;;;11.05;9.95;;;;;;;14.61;92.17;100729.25;5058104;28;20028;-70
2022/06/08 04:11:56;;;;;;;11.00;9.90;;;;;;;14.61;91.95;100732.78;5038829;28;20486;-71
2022/06/08 04:14:21;;;;;;;11.38;10.20;;;;;;;14.65;92.16;100728.03;5091555;28;20047;-71
2022/06/08 04:16:48;;;;;;;10.80;9.80;;;;;;;14.74;91.82;100725.44;5092027;28;20044;-71
2022/06/08 04:19:14;;;;;;;12.63;10.30;;;;;;;14.65;91.73;100711.97;5092815;28;20082;-70
2022/06/08 04:21:42;;;;;;;10.30;9.30;;;;;;;14.68;92.22;100712.56;5090991;28;20108;-70
2022/06/08 04:24:10;;;;;;;9.95;8.95;;;;;;;14.72;92.13;100715.84;5090465;28;20081;-71
2022/06/08 04:26:38;;;;;;;12.43;9.48;;;;;;;14.69;92.67;100711.59;5091358;28;20525;-70
2022/06/08 04:29:05;;;;;;;10.35;9.23;;;;;;;14.59;92.76;100720.47;5091677;28;20036;-70
2022/06/08 04:31:34;;;;;;;9.65;8.52;;;;;;;14.59;93.09;100720.47;5090217;28;20433;-71
2022/06/08 04:34:04;;;;;;;13.68;9.25;;;;;;;14.54;93.36;100718.19;5089365;28;20468;-70
2022/06/08 04:36:31;;;;;;;11.27;8.63;;;;;;;14.64;93.24;100716.47;5091856;28;20491;-71
2022/06/08 04:38:57;;;;;;;9.38;8.48;;;;;;;14.65;93.72;100715.50;5091704;28;20390;-70
2022/06/08 04:41:23;;;;;;;9.52;8.65;;;;;;;14.73;93.54;100713.00;5090883;28;20028;-70
2022/06/08 04:43:48;;;;;;;14.60;8.95;;;;;;;14.75;93.46;100712.91;5071361;28;20028;-70
2022/06/08 04:46:16;;;;;;;10.85;8.63;;;;;;;14.82;93.55;100708.72;5072648;28;20513;-70
2022/06/08 04:48:49;;;;;;;9.95;9.02;;;;;;;14.82;93.22;100705.19;5073375;28;20035;-70
2022/06/08 04:51:19;;;;;;;9.63;8.52;;;;;;;14.84;93.19;100697.91;5090789;28;20059;-71
2022/06/08 04:53:47;;;;;;;10.95;8.52;;;;;;;14.91;92.71;100697.28;5091091;28;20027;-71
2022/06/08 04:56:13;;;;;;;9.80;8.80;;;;;;;14.90;94.10;100690.19;5089276;28;20435;-70
2022/06/08 04:58:40;;;;;;;9.88;8.27;;;;;;;14.87;93.21;100686.94;5100102;28;20028;-71
2022/06/08 05:01:05;;;;;;;7.85;7.15;;;;;;;14.91;92.48;100686.56;5093349;28;20044;-71
2022/06/08 05:03:34;;;;;;;10.23;8.50;;;;;;;14.85;93.58;100680.84;5068837;28;20068;-71
2022/06/08 05:06:01;;;;;;;9.70;7.85;;;;;;;14.87;93.63;100676.22;5070938;28;20064;-71
2022/06/08 05:08:29;;;;;;;9.10;8.07;;;;;;;14.90;93.74;100690.19;5070435;28;20032;-70
2022/06/08 05:10:57;;;;;;;8.05;7.32;;;;;;;14.87;92.87;100677.06;5051710;28;20040;-70
2022/06/08 05:13:23;;;;;;;9.10;7.55;;;;;;;14.92;92.62;100682.06;5068447;28;20025;-70
2022/06/08 05:15:49;;;;;;;8.95;7.85;;;;;;;14.96;92.49;100678.97;5069408;28;20023;-71
2022/06/08 05:18:18;;;;;;;10.60;7.20;;;;;;;15.01;93.20;100669.72;5067608;28;20081;-71
2022/06/08 05:20:44;;;;;;;9.57;7.05;;;;;;;15.06;92.16;100678.19;5070506;28;20383;-71
2022/06/08 05:23:34;;;;;;;10.25;7.15;;;;;;;15.08;92.45;100670.88;5068654;28;20103;-71
2022/06/08 05:26:02;;;;;;;8.18;7.13;;;;;;;15.05;92.21;100663.09;5070505;28;20089;-71
2022/06/08 05:28:27;;;;;;;7.63;6.68;;;;;;;15.09;92.88;100664.53;5065200;28;20020;-71
2022/06/08 05:30:56;;;;;;;9.35;7.10;;;;;;;15.10;92.22;100664.41;5073755;28;20044;-71
2022/06/08 05:33:22;;;;;;;10.10;7.20;;;;;;;15.13;92.31;100658.78;5053621;28;20025;-71
2022/06/08 05:35:47;;;;;;;7.80;7.10;;;;;;;15.12;91.46;100657.09;5069316;28;20024;-71
2022/06/08 05:38:13;;;;;;;8.00;7.20;;;;;;;15.17;92.57;100645.97;5069044;28;20043;-71
2022/06/08 05:40:38;;;;;;;9.45;7.30;;;;;;;15.16;91.97;100641.63;5067717;28;20394;-70
2022/06/08 05:43:07;;;;;;;8.15;6.68;;;;;;;15.18;91.69;100637.81;5068353;28;20028;-71
2022/06/08 05:45:38;;;;;;;10.27;6.85;;;;;;;15.25;91.63;100638.13;5069566;28;20078;-71
2022/06/08 05:48:04;;;;;;;13.27;7.35;;;;;;;15.29;91.96;100631.53;5070198;28;20109;-71
2022/06/08 05:50:31;;;;;;;9.95;7.20;;;;;;;15.33;91.44;100635.66;5067465;28;20026;-70
2022/06/08 05:52:56;;;;;;;7.50;6.45;;;;;;;15.36;91.22;100616.63;5070017;28;20420;-71
2022/06/08 05:55:23;;;;;;;9.85;6.80;;;;;;;15.44;91.35;100630.22;5090062;28;20102;-70
2022/06/08 05:57:51;;;;;;;8.05;6.68;;;;;;;15.44;91.10;100624.84;5074224;28;20029;-71
2022/06/08 06:00:20;;;;;;;9.88;6.40;;;;;;;15.43;90.41;100620.47;5099698;28;20070;-71
2022/06/08 06:02:46;;;;;;;7.82;6.05;;;;;;;15.45;89.50;100623.03;5072693;28;20016;-71
2022/06/08 06:05:14;;;;;;;11.73;7.13;;;;;;;15.45;89.73;100618.50;5087805;28;20051;-71
2022/06/08 06:07:42;;;;;;;7.17;6.50;;;;;;;15.49;91.02;100615.56;5094306;28;20030;-71
2022/06/08 06:10:09;;;;;;;8.30;6.28;;;;;;;15.52;90.23;100626.00;5089624;28;20028;-71
2022/06/08 06:12:35;;;;;;;7.75;6.60;;;;;;;15.51;89.97;100614.44;5092753;28;20039;-71
2022/06/08 06:15:01;;;;;;;9.43;6.40;;;;;;;15.46;89.10;100619.34;5071650;28;20059;-71
2022/06/08 06:17:30;;;;;;;9.27;6.40;;;;;;;15.56;90.71;100630.09;5072382;28;20031;-71
2022/06/08 06:19:56;;;;;;;9.45;6.43;;;;;;;15.57;89.83;100631.81;5071186;28;20050;-71
2022/06/08 06:22:22;;;;;;;9.63;6.22;;;;;;;15.59;89.37;100627.19;5087372;28;20082;-71
2022/06/08 06:24:47;;;;;;;7.07;6.38;;;;;;;15.59;90.56;100632.53;5053073;28;20526;-71
2022/06/08 06:27:13;;;;;;;8.35;6.72;;;;;;;15.61;90.29;100633.25;5077738;28;20043;-71
2022/06/08 06:29:38;;;;;;;7.68;6.60;;;;;;;15.62;90.87;100627.75;5073291;28;20035;-71
2022/06/08 06:32:06;;;;;;;8.93;6.75;;;;;;;15.60;90.65;100640.44;5059960;28;20580;-70
2022/06/08 06:34:32;;;;;;;7.32;6.63;;;;;;;15.62;89.91;100637.63;5094460;28;20456;-71
2022/06/08 06:37:00;;;;;;;9.18;6.07;;;;;;;15.66;90.54;100634.53;5075686;28;20059;-70
2022/06/08 06:39:26;;;;;;;8.27;6.15;;;;;;;15.65;90.39;100627.47;5092902;28;20114;-71
2022/06/08 06:41:52;;;;;;;12.55;6.63;;;;;;;15.69;89.91;100628.09;5091952;28;20095;-71
2022/06/08 06:44:18;;;;;;;8.23;6.13;;;;;;;15.82;90.04;100630.53;5093311;28;20115;-71
2022/06/08 06:46:47;;;;;;;11.20;6.28;;;;;;;15.92;89.82;100630.56;5075101;28;20028;-71
2022/06/08 06:49:13;;;;;;;8.63;5.88;;;;;;;15.93;89.87;100614.34;5056057;28;20537;-71
2022/06/08 06:51:41;;;;;;;6.57;5.72;;;;;;;16.10;90.20;100616.34;5076603;28;20066;-72
2022/06/08 06:54:11;;;;;;;11.75;6.00;;;;;;;16.18;89.71;100607.63;5074507;28;20020;-71
2022/06/08 06:56:36;;;;;;;9.07;5.53;;;;;;;16.44;89.83;100607.94;5092108;28;20490;-72
2022/06/08 06:59:03;;;;;;;6.15;5.55;;;;;;;16.71;88.71;100614.44;5057241;28;20043;-72
2022/06/08 07:01:34;;;;;;;9.23;5.25;;;;;;;16.82;88.18;100600.00;5092142;28;20430;-72
2022/06/08 07:03:59;;;;;;;7.70;4.70;;;;;;;16.84;85.09;100620.38;5093619;28;20499;-71
2022/06/08 07:06:25;;;;;;;5.78;4.22;;;;;;;16.89;85.04;100615.44;5074339;28;20081;-71
2022/06/08 07:08:51;;;;;;;7.90;4.40;;;;;;;16.97;83.69;100609.31;5072115;28;20403;-70
2022/06/08 07:11:32;;;;;;;10.27;4.40;;;;;;;17.05;83.09;100600.56;5048422;28;20024;-71
2022/06/08 07:13:59;;;;;;;7.00;4.15;;;;;;;17.17;82.19;100607.44;5092442;28;20471;-72
2022/06/08 07:16:26;;;;;;;5.45;4.05;;;;;;;17.24;83.72;100592.44;5092364;28;20498;-72
2022/06/08 07:18:52;;;;;;;9.50;4.05;;;;;;;17.41;82.22;100605.13;5073968;28;20036;-72
2022/06/08 07:21:18;;;;;;;7.72;4.25;;;;;;;17.42;81.63;100600.59;5091931;28;20027;-72
2022/06/08 07:23:44;;;;;;;10.25;3.75;;;;;;;17.43;80.08;100600.44;5093769;28;20063;-72
2022/06/08 07:26:09;;;;;;;8.43;4.20;;;;;;;17.36;80.91;100599.34;5073827;28;20035;-71
2022/06/08 07:28:35;;;;;;;5.43;3.80;;;;;;;17.37;80.23;100597.50;5091197;28;20022;-72
2022/06/08 07:31:01;;;;;;;8.88;4.05;;;;;;;17.40;81.18;100591.81;5093502;28;20032;-71
2022/06/08 07:33:29;;;;;;;6.05;3.42;;;;;;;17.49;83.02;100581.00;5092948;28;20059;-71
2022/06/08 07:35:54;;;;;;;7.25;3.50;;;;;;;17.55;80.19;100595.72;5074048;28;20367;-72
2022/06/08 07:38:21;;;;;;;7.40;3.42;;;;;;;17.65;78.84;100582.25;5074322;28;20035;-72
2022/06/08 07:40:47;;;;;;;7.25;3.42;;;;;;;17.85;80.81;100589.25;5072766;28;20459;-72
2022/06/08 07:43:12;;;;;;;7.63;3.83;;;;;;;18.00;79.04;100586.88;5073555;28;20483;-72
2022/06/08 07:45:40;;;;;;;9.57;3.60;;;;;;;18.15;77.51;100593.44;5058028;28;20089;-71
2022/06/08 07:50:52;;;;;;;9.80;3.65;;;;;;;18.17;76.81;100590.59;5091356;28;20039;-72
2022/06/08 07:53:18;;;;;;;10.23;3.40;;;;;;;18.19;77.13;100593.97;5072806;28;20024;-72
2022/06/08 07:55:44;;;;;;;9.45;3.40;;;;;;;18.31;77.71;100597.28;5072860;28;20039;-72
2022/06/08 07:58:10;;;;;;;6.88;2.92;;;;;;;18.33;77.23;100601.53;5073879;28;20027;-72
2022/06/08 08:00:37;;;;;;;8.18;3.55;;;;;;;18.20;74.93;100605.59;5072788;28;20035;-72
2022/06/08 08:03:02;;;;;;;10.63;3.30;;;;;;;18.09;75.16;100594.06;5095635;28;20028;-72
2022/06/08 08:05:28;;;;;;;7.22;2.80;;;;;;;17.97;75.29;100614.09;5051342;28;20444;-72
2022/06/08 08:07:54;;;;;;;8.38;3.22;;;;;;;17.82;76.64;100602.13;5073913;28;20475;-73
2022/06/08 08:10:24;;;;;;;6.75;3.10;;;;;;;17.80;76.74;100599.59;5071298;28;20032;-72
2022/06/08 08:12:51;;;;;;;6.43;3.10;;;;;;;17.77;75.81;100597.19;5075106;28;20086;-73
2022/06/08 08:15:17;;;;;;;7.95;3.45;;;;;;;17.78;76.86;100595.38;5069841;28;20111;-73
2022/06/08 08:17:43;;;;;;;6.63;3.60;;;;;;;17.82;78.63;100591.38;5068565;28;20111;-74
2022/06/08 08:20:13;;;;;;;9.80;3.55;;;;;;;17.80;76.03;100599.59;5068121;28;20082;-73
2022/06/08 08:22:38;;;;;;;9.68;3.60;;;;;;;17.71;75.90;100587.03;5071475;28;20728;-73
2022/06/08 08:25:07;;;;;;;5.78;3.38;;;;;;;17.70;76.47;100596.06;5052450;28;20487;-73
2022/06/08 08:27:33;;;;;;;11.93;5.20;;;;;;;17.70;76.42;100596.06;5052191;28;20036;-73
2022/06/08 08:30:00;;;;;;;7.28;3.42;;;;;;;17.58;77.06;100591.88;5070871;28;20043;-74
2022/06/08 08:32:26;;;;;;;10.23;4.13;;;;;;;17.60;77.50;100600.66;5069954;28;20460;-74
2022/06/08 08:34:52;;;;;;;8.27;3.67;;;;;;;17.59;79.31;100586.38;5069353;28;20055;-73
2022/06/08 08:37:17;;;;;;;9.48;4.20;;;;;;;17.63;78.06;100597.66;5050952;28;20115;-73
2022/06/08 08:39:42;;;;;;;7.07;3.72;;;;;;;17.62;76.82;100587.91;5070680;28;20037;-73
2022/06/08 08:42:21;;;;;;;12.18;3.83;;;;;;;17.62;77.73;100591.44;5068530;28;20067;-73
2022/06/08 08:44:52;;;;;;;6.15;3.30;;;;;;;17.64;76.64;100593.97;5069477;28;20423;-73
2022/06/08 08:47:31;;;;;;;8.35;3.60;;;;;;;17.58;77.21;100595.41;5080484;28;20024;-73
2022/06/08 08:50:02;;;;;;;10.02;3.67;;;;;;;17.64;77.17;100593.97;5072840;28;20024;-73
2022/06/08 08:52:49;;;;;;;5.70;3.67;;;;;;;17.59;76.74;100596.25;5068630;28;20083;-73
2022/06/08 08:55:34;;;;;;;6.43;3.42;;;;;;;17.53;77.24;100588.78;5075525;28;20395;-73
2022/06/08 08:58:12;;;;;;;9.02;3.75;;;;;;;17.58;77.09;100594.56;5072792;28;20028;-74
2022/06/08 09:00:44;;;;;;;7.32;3.55;;;;;;;17.61;77.17;100591.59;5069491;28;20025;-73
2022/06/08 09:03:15;;;;;;;9.38;3.67;;;;;;;17.61;77.11;100596.97;5068046;28;20096;-73
2022/06/08 09:05:45;;;;;;;12.45;3.80;;;;;;;17.56;76.90;100597.44;5061530;28;20147;-74
2022/06/08 09:08:11;;;;;;;10.23;3.60;;;;;;;17.56;77.13;100607.31;5068474;28;20518;-73
2022/06/08 09:10:39;;;;;;;8.90;3.42;;;;;;;17.53;76.76;100592.34;5066275;28;20089;-74
2022/06/08 09:13:06;;;;;;;8.77;3.67;;;;;;;17.41;77.03;100597.06;5068988;28;20035;-74
2022/06/08 09:15:48;;;;;;;12.90;3.58;;;;;;;17.49;78.11;100599.84;5057981;28;20023;-73
2022/06/08 09:18:40;;;;;;;6.22;3.35;;;;;;;17.55;78.00;100603.78;5063830;28;20036;-74
2022/06/08 09:21:21;;;;;;;9.50;3.25;;;;;;;17.55;79.33;100602.94;5066995;28;20028;-74
2022/06/08 09:23:50;;;;;;;10.07;3.63;;;;;;;17.64;78.69;100604.72;5069917;28;20033;-73
2022/06/08 09:26:28;;;;;;;11.00;3.70;;;;;;;17.46;79.55;100592.06;5068660;28;20031;-74
2022/06/08 09:29:20;;;;;;;9.05;3.33;;;;;;;17.45;80.02;100597.59;5070200;28;20016;-73
2022/06/08 09:31:46;;;;;;;8.02;3.40;;;;;;;17.49;80.68;100599.00;5070646;28;20025;-74
2022/06/08 09:34:22;;;;;;;8.13;3.50;;;;;;;17.44;80.89;100598.56;5070580;28;20036;-73
2022/06/08 09:37:06;;;;;;;11.45;3.70;;;;;;;17.42;80.56;100604.13;5069034;28;20046;-73
2022/06/08 09:39:35;;;;;;;11.85;3.58;;;;;;;17.28;80.76;100601.06;5073344;28;20070;-73
2022/06/08 09:42:17;;;;;;;12.45;4.35;;;;;;;17.35;83.68;100604.84;5068872;28;20029;-73
2022/06/08 09:44:54;;;;;;;14.10;4.10;;;;;;;17.32;83.54;100599.75;5082459;28;20028;-73
2022/06/08 09:53:35;;;;;;;14.30;3.40;;;;;;;17.14;81.91;100613.13;5090755;28;20113;-73
2022/06/08 09:56:19;;;;;;;9.55;3.58;;;;;;;17.13;82.87;100614.97;5087079;28;20036;-72
2022/06/08 09:58:51;;;;;;;7.82;3.45;;;;;;;17.01;82.29;100611.59;5068729;28;20040;-73
2022/06/08 10:01:39;;;;;;;7.18;3.47;;;;;;;16.88;83.82;100602.13;5070268;28;20028;-73
2022/06/08 10:04:34;;;;;;;11.73;4.28;;;;;;;16.90;84.31;100601.00;5079856;28;20044;-73
2022/06/08 10:07:21;;;;;;;12.88;3.97;;;;;;;16.96;86.99;100610.31;5093156;28;20073;-74
2022/06/08 10:10:12;;;;;;;9.48;4.18;;;;;;;17.05;85.38;100608.59;5094041;28;20062;-72
2022/06/08 10:12:48;;;;;;;9.23;4.10;;;;;;;16.90;85.96;100605.53;5074472;28;20058;-73
2022/06/08 10:15:31;;;;;;;12.88;4.30;;;;;;;16.87;87.14;100603.13;5094016;28;20034;-73
2022/06/08 10:18:24;;;;;;;10.48;4.00;;;;;;;16.77;86.12;100611.22;5088156;28;20027;-73
2022/06/08 10:20:55;;;;;;;8.77;4.53;;;;;;;16.67;88.57;100605.78;5109035;28;20040;-73
2022/06/08 10:23:41;;;;;;;9.52;4.13;;;;;;;16.77;89.49;100605.84;5075605;28;20067;-73
2022/06/08 10:26:21;;;;;;;11.05;4.03;;;;;;;16.71;87.76;100612.59;5095746;28;20020;-73
2022/06/08 10:28:52;;;;;;;12.02;4.30;;;;;;;16.69;87.57;100606.50;5075299;28;20032;-73
2022/06/08 10:31:37;;;;;;;10.23;4.53;;;;;;;16.75;88.56;100602.41;5093844;28;20020;-73
2022/06/08 10:34:15;;;;;;;13.85;4.43;;;;;;;16.77;89.36;100605.84;5089075;28;20024;-73
2022/06/08 10:36:41;;;;;;;13.05;4.90;;;;;;;16.70;87.57;100593.91;5085210;28;20364;-73
2022/06/08 10:39:08;;;;;;;11.05;4.30;;;;;;;16.75;86.43;100602.41;5057093;28;20027;-74
2022/06/08 10:44:40;;;;;;;;;;;;;;;16.81;86.78;100593.81;5087244;28;20039;-73
2022/06/08 10:47:16;;;;;;;10.35;4.63;;;;;;;16.64;89.06;100600.69;5077367;28;20313;-73
2022/06/08 10:49:45;;;;;;;10.05;4.70;;;;;;;16.63;88.80;100607.06;5089848;28;20394;-72
2022/06/08 10:52:27;;;;;;;13.50;4.85;;;;;;;16.64;88.17;100592.66;5091801;28;20028;-73
2022/06/08 10:55:13;;;;;;;8.40;4.72;;;;;;;16.63;89.34;100601.69;5088171;28;20449;-72
2022/06/08 10:58:07;;;;;;;7.78;3.92;;;;;;;16.60;88.21;100601.16;5092865;28;20039;-73
2022/06/08 11:00:58;;;;;;;9.00;3.88;;;;;;;16.56;87.26;100598.75;5093529;28;20035;-73
2022/06/08 11:03:39;;;;;;;6.95;3.50;;;;;;;16.54;86.79;100598.03;5094534;28;20027;-73
2022/06/08 11:06:11;;;;;;;10.27;3.33;;;;;;;16.42;85.31;100585.75;5072703;28;21040;-73
2022/06/08 11:08:51;;;;;;;8.38;3.30;;;;;;;16.39;87.53;100587.88;5090901;28;20487;-73
2022/06/08 11:11:41;;;;;;;9.25;3.97;;;;;;;16.42;87.72;100577.69;5094276;28;20475;-73
2022/06/08 11:14:48;;;;;;;10.88;3.70;;;;;;;16.51;87.38;100574.16;5091757;28;20016;-73
2022/06/08 11:17:35;;;;;;;7.75;3.53;;;;;;;16.34;86.84;100578.38;5050179;28;20035;-73
2022/06/08 11:20:18;;;;;;;7.63;3.47;;;;;;;16.37;87.42;100566.53;5089589;28;20036;-73
2022/06/08 11:22:55;;;;;;;11.38;3.65;;;;;;;16.25;87.53;100562.28;5090833;28;20089;-73
2022/06/08 11:25:29;;;;;;;8.13;3.92;;;;;;;16.24;88.97;100564.13;5092769;28;20039;-72
2022/06/08 11:28:33;;;;;;;12.90;4.10;;;;;;;16.27;87.39;100563.00;5072263;28;20121;-73
2022/06/08 11:31:11;;;;;;;6.97;3.35;;;;;;;16.18;89.44;100561.13;4994200;28;20104;-73
2022/06/08 11:34:16;;;;;;;8.25;3.55;;;;;;;16.22;88.97;100557.19;5066297;28;20039;-73
2022/06/08 11:36:50;;;;;;;9.82;3.70;;;;;;;16.21;90.14;100548.31;5093411;28;20020;-73
2022/06/08 11:39:23;;;;;;;7.38;3.88;;;;;;;16.33;89.34;100543.66;5092488;28;20039;-72
2022/06/08 11:42:00;;;;;;;11.27;3.72;;;;;;;16.34;89.16;100548.00;5092332;28;20107;-73
2022/06/08 11:44:34;;;;;;;7.50;3.30;;;;;;;16.29;88.74;100544.91;5092177;28;20028;-72
2022/06/08 11:47:14;;;;;;;8.98;3.78;;;;;;;16.24;89.74;100534.59;5092143;28;20031;-73
2022/06/08 11:49:45;;;;;;;5.38;3.00;;;;;;;16.16;87.82;100534.44;5092446;28;20032;-73
2022/06/08 11:52:29;;;;;;;7.18;3.33;;;;;;;16.25;88.95;100532.75;5092480;28;20479;-73
2022/06/08 11:55:11;;;;;;;11.18;3.85;;;;;;;16.25;89.61;100530.91;5074987;28;20035;-73